sensor_id;sensor_type;location;lat;lon;timestamp;pressure;altitude;pressure_sealevel;temperature
71807;BMP280;59655;42.590;23.364;2024-01-15T00:01:11;90719.84;;;-1.15
71807;BMP280;59655;42.590;23.364;2024-01-15T00:03:36;90709.19;;;-1.11
71807;BMP280;59655;42.590;23.364;2024-01-15T00:06:02;90716.50;;;-1.27
71807;BMP280;59655;42.590;23.364;2024-01-15T00:08:28;90708.47;;;-1.29
71807;BMP280;59655;42.590;23.364;2024-01-15T00:10:53;90698.31;;;-1.27
71807;BMP280;59655;42.590;23.364;2024-01-15T00:13:18;90703.28;;;-1.23
71807;BMP280;59655;42.590;23.364;2024-01-15T00:15:43;90707.75;;;-1.35
71807;BMP280;59655;42.590;23.364;2024-01-15T00:18:09;90709.63;;;-1.30
71807;BMP280;59655;42.590;23.364;2024-01-15T00:20:34;90704.44;;;-1.30
71807;BMP280;59655;42.590;23.364;2024-01-15T00:23:00;90704.91;;;-1.26
71807;BMP280;59655;42.590;23.364;2024-01-15T00:25:25;90700.91;;;-1.21
71807;BMP280;59655;42.590;23.364;2024-01-15T00:27:50;90707.28;;;-1.22
71807;BMP280;59655;42.590;23.364;2024-01-15T00:30:15;90702.09;;;-1.22
71807;BMP280;59655;42.590;23.364;2024-01-15T00:32:41;90713.44;;;-1.31
71807;BMP280;59655;42.590;23.364;2024-01-15T00:35:06;90702.56;;;-1.35
71807;BMP280;59655;42.590;23.364;2024-01-15T00:37:32;90706.78;;;-1.38
71807;BMP280;59655;42.590;23.364;2024-01-15T00:39:57;90700.41;;;-1.42
71807;BMP280;59655;42.590;23.364;2024-01-15T00:42:23;90705.13;;;-1.41
71807;BMP280;59655;42.590;23.364;2024-01-15T00:44:48;90704.66;;;-1.33
71807;BMP280;59655;42.590;23.364;2024-01-15T00:47:13;90707.50;;;-1.37
71807;BMP280;59655;42.590;23.364;2024-01-15T00:49:38;90705.13;;;-1.41
71807;BMP280;59655;42.590;23.364;2024-01-15T00:52:04;90708.41;;;-1.46
71807;BMP280;59655;42.590;23.364;2024-01-15T00:54:29;90699.94;;;-1.41
71807;BMP280;59655;42.590;23.364;2024-01-15T00:56:54;90703.91;;;-1.51
71807;BMP280;59655;42.590;23.364;2024-01-15T00:59:20;90708.66;;;-1.49
71807;BMP280;59655;42.590;23.364;2024-01-15T01:01:46;90690.91;;;-1.45
71807;BMP280;59655;42.590;23.364;2024-01-15T01:04:12;90694.25;;;-1.45
71807;BMP280;59655;42.590;23.364;2024-01-15T01:06:38;90687.63;;;-1.46
71807;BMP280;59655;42.590;23.364;2024-01-15T01:09:03;90696.63;;;-1.47
71807;BMP280;59655;42.590;23.364;2024-01-15T01:11:29;90695.88;;;-1.59
71807;BMP280;59655;42.590;23.364;2024-01-15T01:13:54;90696.63;;;-1.47
71807;BMP280;59655;42.590;23.364;2024-01-15T01:16:19;90696.84;;;-1.45
71807;BMP280;59655;42.590;23.364;2024-01-15T01:18:45;90692.13;;;-1.46
71807;BMP280;59655;42.590;23.364;2024-01-15T01:21:10;90702.75;;;-1.44
71807;BMP280;59655;42.590;23.364;2024-01-15T01:23:35;90686.47;;;-1.39
71807;BMP280;59655;42.590;23.364;2024-01-15T01:26:01;90686.47;;;-1.33
71807;BMP280;59655;42.590;23.364;2024-01-15T01:28:26;90673.19;;;-1.35
71807;BMP280;59655;42.590;23.364;2024-01-15T01:30:51;90675.09;;;-1.36
71807;BMP280;59655;42.590;23.364;2024-01-15T01:33:17;90684.09;;;-1.37
71807;BMP280;59655;42.590;23.364;2024-01-15T01:35:43;90677.44;;;-1.44
71807;BMP280;59655;42.590;23.364;2024-01-15T01:38:09;90672.25;;;-1.49
71807;BMP280;59655;42.590;23.364;2024-01-15T01:40:34;90675.31;;;-1.51
71807;BMP280;59655;42.590;23.364;2024-01-15T01:42:59;90678.16;;;-1.54
71807;BMP280;59655;42.590;23.364;2024-01-15T01:45:25;90673.69;;;-1.48
71807;BMP280;59655;42.590;23.364;2024-01-15T01:47:50;90672.69;;;-1.57
71807;BMP280;59655;42.590;23.364;2024-01-15T01:50:16;90677.66;;;-1.59
71807;BMP280;59655;42.590;23.364;2024-01-15T01:52:41;90681.69;;;-1.58
71807;BMP280;59655;42.590;23.364;2024-01-15T01:55:08;90675.31;;;-1.57
71807;BMP280;59655;42.590;23.364;2024-01-15T01:57:34;90673.19;;;-1.64
71807;BMP280;59655;42.590;23.364;2024-01-15T02:00:02;90671.06;;;-1.65
71807;BMP280;59655;42.590;23.364;2024-01-15T02:02:29;90660.41;;;-1.67
71807;BMP280;59655;42.590;23.364;2024-01-15T02:04:55;90655.66;;;-1.74
71807;BMP280;59655;42.590;23.364;2024-01-15T02:07:20;90672.94;;;-1.71
71807;BMP280;59655;42.590;23.364;2024-01-15T02:09:46;90661.56;;;-1.68
71807;BMP280;59655;42.590;23.364;2024-01-15T02:12:11;90672.94;;;-1.71
71807;BMP280;59655;42.590;23.364;2024-01-15T02:14:37;90653.78;;;-1.74
71807;BMP280;59655;42.590;23.364;2024-01-15T02:17:02;90654.97;;;-1.69
71807;BMP280;59655;42.590;23.364;2024-01-15T02:19:28;90643.88;;;-1.75
71807;BMP280;59655;42.590;23.364;2024-01-15T02:21:53;90644.56;;;-1.75
71807;BMP280;59655;42.590;23.364;2024-01-15T02:24:18;90647.88;;;-1.69
71807;BMP280;59655;42.590;23.364;2024-01-15T02:26:44;90634.16;;;-1.86
71807;BMP280;59655;42.590;23.364;2024-01-15T02:29:10;90628.50;;;-1.85
71807;BMP280;59655;42.590;23.364;2024-01-15T02:31:38;90627.53;;;-1.82
71807;BMP280;59655;42.590;23.364;2024-01-15T02:34:04;90626.13;;;-1.77
71807;BMP280;59655;42.590;23.364;2024-01-15T02:36:29;90600.34;;;-1.92
71807;BMP280;59655;42.590;23.364;2024-01-15T02:38:55;90597.56;;;-1.77
71807;BMP280;59655;42.590;23.364;2024-01-15T02:41:20;90602.75;;;-1.83
71807;BMP280;59655;42.590;23.364;2024-01-15T02:43:46;90593.72;;;-2.10
71807;BMP280;59655;42.590;23.364;2024-01-15T02:46:11;90591.84;;;-1.98
71807;BMP280;59655;42.590;23.364;2024-01-15T02:48:36;90593.75;;;-1.93
71807;BMP280;59655;42.590;23.364;2024-01-15T02:51:02;90579.59;;;-1.75
71807;BMP280;59655;42.590;23.364;2024-01-15T02:53:27;90584.56;;;-1.66
71807;BMP280;59655;42.590;23.364;2024-01-15T02:55:52;90575.56;;;-1.59
71807;BMP280;59655;42.590;23.364;2024-01-15T02:58:18;90574.41;;;-1.58
71807;BMP280;59655;42.590;23.364;2024-01-15T03:00:43;90575.81;;;-1.63
71807;BMP280;59655;42.590;23.364;2024-01-15T03:03:09;90575.09;;;-1.63
71807;BMP280;59655;42.590;23.364;2024-01-15T03:05:34;90570.63;;;-1.63
71807;BMP280;59655;42.590;23.364;2024-01-15T03:07:59;90577.00;;;-1.75
71807;BMP280;59655;42.590;23.364;2024-01-15T03:10:25;90574.16;;;-1.66
71807;BMP280;59655;42.590;23.364;2024-01-15T03:12:50;90577.25;;;-1.62
71807;BMP280;59655;42.590;23.364;2024-01-15T03:15:16;90589.78;;;-1.60
71807;BMP280;59655;42.590;23.364;2024-01-15T03:17:43;90589.28;;;-1.53
71807;BMP280;59655;42.590;23.364;2024-01-15T03:20:09;90581.47;;;-1.47
71807;BMP280;59655;42.590;23.364;2024-01-15T03:22:34;90570.84;;;-1.44
71807;BMP280;59655;42.590;23.364;2024-01-15T03:24:59;90579.84;;;-1.39
71807;BMP280;59655;42.590;23.364;2024-01-15T03:27:25;90574.88;;;-1.37
71807;BMP280;59655;42.590;23.364;2024-01-15T03:29:51;90588.09;;;-1.46
71807;BMP280;59655;42.590;23.364;2024-01-15T03:32:16;90565.16;;;-1.37
71807;BMP280;59655;42.590;23.364;2024-01-15T03:34:42;90548.16;;;-1.32
71807;BMP280;59655;42.590;23.364;2024-01-15T03:37:07;90551.22;;;-1.28
71807;BMP280;59655;42.590;23.364;2024-01-15T03:39:32;90550.53;;;-1.34
71807;BMP280;59655;42.590;23.364;2024-01-15T03:41:58;90552.19;;;-1.31
71807;BMP280;59655;42.590;23.364;2024-01-15T03:44:23;90558.31;;;-1.28
71807;BMP280;59655;42.590;23.364;2024-01-15T03:46:48;90555.50;;;-1.30
71807;BMP280;59655;42.590;23.364;2024-01-15T03:49:13;90560.00;;;-1.31
71807;BMP280;59655;42.590;23.364;2024-01-15T03:51:39;90554.56;;;-1.33
71807;BMP280;59655;42.590;23.364;2024-01-15T03:54:04;90559.75;;;-1.33
71807;BMP280;59655;42.590;23.364;2024-01-15T03:56:29;90550.06;;;-1.32
71807;BMP280;59655;42.590;23.364;2024-01-15T03:58:55;90556.69;;;-1.31
71807;BMP280;59655;42.590;23.364;2024-01-15T04:01:20;90555.22;;;-1.38
71807;BMP280;59655;42.590;23.364;2024-01-15T04:03:46;90549.56;;;-1.37
71807;BMP280;59655;42.590;23.364;2024-01-15T04:06:11;90562.34;;;-1.50
71807;BMP280;59655;42.590;23.364;2024-01-15T04:08:36;90551.22;;;-1.39
71807;BMP280;59655;42.590;23.364;2024-01-15T04:11:02;90550.53;;;-1.34
71807;BMP280;59655;42.590;23.364;2024-01-15T04:13:27;90544.13;;;-1.39
71807;BMP280;59655;42.590;23.364;2024-01-15T04:15:52;90548.16;;;-1.49
71807;BMP280;59655;42.590;23.364;2024-01-15T04:18:18;90538.94;;;-1.50
71807;BMP280;59655;42.590;23.364;2024-01-15T04:20:43;90530.16;;;-1.41
71807;BMP280;59655;42.590;23.364;2024-01-15T04:23:09;90533.25;;;-1.37
71807;BMP280;59655;42.590;23.364;2024-01-15T04:25:34;90538.00;;;-1.52
71807;BMP280;59655;42.590;23.364;2024-01-15T04:28:00;90539.19;;;-1.48
71807;BMP280;59655;42.590;23.364;2024-01-15T04:30:25;90549.34;;;-1.44
71807;BMP280;59655;42.590;23.364;2024-01-15T04:32:50;90536.81;;;-1.46
71807;BMP280;59655;42.590;23.364;2024-01-15T04:35:16;90555.47;;;-1.53
71807;BMP280;59655;42.590;23.364;2024-01-15T04:37:41;90555.00;;;-1.51
71807;BMP280;59655;42.590;23.364;2024-01-15T04:40:07;90552.88;;;-1.47
71807;BMP280;59655;42.590;23.364;2024-01-15T04:42:32;90544.84;;;-1.44
71807;BMP280;59655;42.590;23.364;2024-01-15T04:44:58;90539.88;;;-1.47
71807;BMP280;59655;42.590;23.364;2024-01-15T04:47:23;90548.63;;;-1.45
71807;BMP280;59655;42.590;23.364;2024-01-15T04:49:49;90538.47;;;-1.43
71807;BMP280;59655;42.590;23.364;2024-01-15T04:52:14;90554.31;;;-1.52
71807;BMP280;59655;42.590;23.364;2024-01-15T04:54:40;90545.06;;;-1.47
71807;BMP280;59655;42.590;23.364;2024-01-15T04:57:05;90551.94;;;-1.55
71807;BMP280;59655;42.590;23.364;2024-01-15T04:59:31;90551.00;;;-1.52
71807;BMP280;59655;42.590;23.364;2024-01-15T05:01:56;90536.56;;;-1.53
71807;BMP280;59655;42.590;23.364;2024-01-15T05:04:21;90550.78;;;-1.66
71807;BMP280;59655;42.590;23.364;2024-01-15T05:06:47;90517.22;;;-1.69
71807;BMP280;59655;42.590;23.364;2024-01-15T05:09:12;90533.53;;;-1.63
71807;BMP280;59655;42.590;23.364;2024-01-15T05:11:39;90511.09;;;-1.72
71807;BMP280;59655;42.590;23.364;2024-01-15T05:14:04;90512.25;;;-1.62
71807;BMP280;59655;42.590;23.364;2024-01-15T05:16:29;90510.59;;;-1.65
71807;BMP280;59655;42.590;23.364;2024-01-15T05:18:55;90504.00;;;-1.60
71807;BMP280;59655;42.590;23.364;2024-01-15T05:21:20;90521.72;;;-1.70
71807;BMP280;59655;42.590;23.364;2024-01-15T05:23:45;90500.91;;;-1.64
71807;BMP280;59655;42.590;23.364;2024-01-15T05:26:11;90493.59;;;-1.54
71807;BMP280;59655;42.590;23.364;2024-01-15T05:28:36;90493.81;;;-1.52
71807;BMP280;59655;42.590;23.364;2024-01-15T05:31:01;90486.94;;;-1.55
71807;BMP280;59655;42.590;23.364;2024-01-15T05:33:27;90485.72;;;-1.43
71807;BMP280;59655;42.590;23.364;2024-01-15T05:35:52;90483.63;;;-1.39
71807;BMP280;59655;42.590;23.364;2024-01-15T05:38:19;90484.81;;;-1.34
71807;BMP280;59655;42.590;23.364;2024-01-15T05:40:44;90476.75;;;-1.31
71807;BMP280;59655;42.590;23.364;2024-01-15T05:43:09;90492.13;;;-1.27
71807;BMP280;59655;42.590;23.364;2024-01-15T05:45:35;90477.44;;;-1.25
71807;BMP280;59655;42.590;23.364;2024-01-15T05:48:03;90477.91;;;-1.21
71807;BMP280;59655;42.590;23.364;2024-01-15T05:50:29;90485.25;;;-1.19
71807;BMP280;59655;42.590;23.364;2024-01-15T05:52:54;90488.09;;;-1.23
71807;BMP280;59655;42.590;23.364;2024-01-15T05:55:19;90473.16;;;-1.16
71807;BMP280;59655;42.590;23.364;2024-01-15T05:57:45;90475.28;;;-1.15
71807;BMP280;59655;42.590;23.364;2024-01-15T06:00:11;90486.41;;;-1.20
71807;BMP280;59655;42.590;23.364;2024-01-15T06:02:39;90493.06;;;-1.30
71807;BMP280;59655;42.590;23.364;2024-01-15T06:05:05;90496.59;;;-1.22
71807;BMP280;59655;42.590;23.364;2024-01-15T06:07:31;90497.53;;;-1.20
71807;BMP280;59655;42.590;23.364;2024-01-15T06:09:56;90491.16;;;-1.30
71807;BMP280;59655;42.590;23.364;2024-01-15T06:12:24;90477.91;;;-1.21
71807;BMP280;59655;42.590;23.364;2024-01-15T06:14:50;90488.06;;;-1.17
71807;BMP280;59655;42.590;23.364;2024-01-15T06:17:15;90492.34;;;-1.25
71807;BMP280;59655;42.590;23.364;2024-01-15T06:19:40;90486.41;;;-1.20
71807;BMP280;59655;42.590;23.364;2024-01-15T06:22:06;90496.81;;;-1.14
71807;BMP280;59655;42.590;23.364;2024-01-15T06:24:31;90493.97;;;-1.16
71807;BMP280;59655;42.590;23.364;2024-01-15T06:26:56;90486.84;;;-1.10
71807;BMP280;59655;42.590;23.364;2024-01-15T06:29:22;90501.06;;;-1.11
71807;BMP280;59655;42.590;23.364;2024-01-15T06:31:49;90501.06;;;-1.11
71807;BMP280;59655;42.590;23.364;2024-01-15T06:34:15;90500.59;;;-1.15
71807;BMP280;59655;42.590;23.364;2024-01-15T06:36:40;90480.00;;;-1.08
71807;BMP280;59655;42.590;23.364;2024-01-15T06:39:05;90494.66;;;-1.10
71807;BMP280;59655;42.590;23.364;2024-01-15T06:41:31;90469.56;;;-1.02
71807;BMP280;59655;42.590;23.364;2024-01-15T06:43:56;90454.63;;;-0.96
71807;BMP280;59655;42.590;23.364;2024-01-15T06:46:22;90471.84;;;-0.87
71807;BMP280;59655;42.590;23.364;2024-01-15T06:48:47;90479.19;;;-0.86
71807;BMP280;59655;42.590;23.364;2024-01-15T06:51:13;90494.53;;;-0.76
71807;BMP280;59655;42.590;23.364;2024-01-15T06:53:38;90481.03;;;-0.69
71807;BMP280;59655;42.590;23.364;2024-01-15T06:56:04;90471.53;;;-0.67
71807;BMP280;59655;42.590;23.364;2024-01-15T06:58:30;90479.53;;;-0.59
71807;BMP280;59655;42.590;23.364;2024-01-15T07:00:56;90493.72;;;-0.60
71807;BMP280;59655;42.590;23.364;2024-01-15T07:03:21;90503.66;;;-0.53
71807;BMP280;59655;42.590;23.364;2024-01-15T07:05:47;90485.88;;;-0.49
71807;BMP280;59655;42.590;23.364;2024-01-15T07:08:12;90493.69;;;-0.49
71807;BMP280;59655;42.590;23.364;2024-01-15T07:10:38;90489.88;;;-0.42
71807;BMP280;59655;42.590;23.364;2024-01-15T07:13:03;90488.66;;;-0.41
71807;BMP280;59655;42.590;23.364;2024-01-15T07:15:30;90491.03;;;-0.43
71807;BMP280;59655;42.590;23.364;2024-01-15T07:17:55;90478.72;;;-0.43
71807;BMP280;59655;42.590;23.364;2024-01-15T07:20:21;90502.88;;;-0.42
71807;BMP280;59655;42.590;23.364;2024-01-15T07:22:47;90485.81;;;-0.32
71807;BMP280;59655;42.590;23.364;2024-01-15T07:25:12;90495.97;;;-0.34
71807;BMP280;59655;42.590;23.364;2024-01-15T07:27:38;90501.88;;;-0.33
71807;BMP280;59655;42.590;23.364;2024-01-15T07:30:04;90488.38;;;-0.26
71807;BMP280;59655;42.590;23.364;2024-01-15T07:32:30;90499.97;;;-0.27
71807;BMP280;59655;42.590;23.364;2024-01-15T07:34:56;90489.28;;;-0.24
71807;BMP280;59655;42.590;23.364;2024-01-15T07:37:22;90504.22;;;-0.24
71807;BMP280;59655;42.590;23.364;2024-01-15T07:39:48;90484.31;;;-0.22
71807;BMP280;59655;42.590;23.364;2024-01-15T07:42:14;90514.38;;;-0.21
71807;BMP280;59655;42.590;23.364;2024-01-15T07:44:39;90493.53;;;-0.21
71807;BMP280;59655;42.590;23.364;2024-01-15T07:47:05;90498.03;;;-0.15
71807;BMP280;59655;42.590;23.364;2024-01-15T07:49:30;90498.94;;;-0.13
71807;BMP280;59655;42.590;23.364;2024-01-15T07:51:55;90502.00;;;-0.09
71807;BMP280;59655;42.590;23.364;2024-01-15T07:54:21;90519.06;;;-0.08
71807;BMP280;59655;42.590;23.364;2024-01-15T07:57:02;90521.66;;;-0.08
71807;BMP280;59655;42.590;23.364;2024-01-15T07:59:28;90515.03;;;-0.09
71807;BMP280;59655;42.590;23.364;2024-01-15T08:01:53;90504.31;;;0.01
71807;BMP280;59655;42.590;23.364;2024-01-15T08:04:19;90491.50;;;0.03
71807;BMP280;59655;42.590;23.364;2024-01-15T08:06:45;90494.53;;;0.07
71807;BMP280;59655;42.590;23.364;2024-01-15T08:09:11;90487.16;;;0.11
71807;BMP280;59655;42.590;23.364;2024-01-15T08:11:41;90482.66;;;0.11
71807;BMP280;59655;42.590;23.364;2024-01-15T08:14:10;90488.59;;;0.12
71807;BMP280;59655;42.590;23.364;2024-01-15T08:16:36;90495.19;;;0.13
71807;BMP280;59655;42.590;23.364;2024-01-15T08:19:01;90485.47;;;0.13
71807;BMP280;59655;42.590;23.364;2024-01-15T08:21:27;90499.94;;;0.14
71807;BMP280;59655;42.590;23.364;2024-01-15T08:24:02;90495.63;;;0.17
71807;BMP280;59655;42.590;23.364;2024-01-15T08:26:30;90481.19;;;0.16
71807;BMP280;59655;42.590;23.364;2024-01-15T08:28:56;90481.69;;;0.14
71807;BMP280;59655;42.590;23.364;2024-01-15T08:31:22;90470.28;;;0.17
71807;BMP280;59655;42.590;23.364;2024-01-15T08:33:48;90485.94;;;0.17
71807;BMP280;59655;42.590;23.364;2024-01-15T08:36:13;90466.25;;;0.16
71807;BMP280;59655;42.590;23.364;2024-01-15T08:38:39;90465.56;;;0.16
71807;BMP280;59655;42.590;23.364;2024-01-15T08:41:04;90465.78;;;0.18
71807;BMP280;59655;42.590;23.364;2024-01-15T08:43:29;90455.56;;;0.20
71807;BMP280;59655;42.590;23.364;2024-01-15T08:45:56;90460.09;;;0.19
71807;BMP280;59655;42.590;23.364;2024-01-15T08:48:22;90468.16;;;0.16
71807;BMP280;59655;42.590;23.364;2024-01-15T08:50:47;90453.22;;;0.16
71807;BMP280;59655;42.590;23.364;2024-01-15T08:53:13;90460.38;;;0.10
71807;BMP280;59655;42.590;23.364;2024-01-15T08:55:38;90460.13;;;0.14
71807;BMP280;59655;42.590;23.364;2024-01-15T08:58:04;90440.19;;;0.16
71807;BMP280;59655;42.590;23.364;2024-01-15T09:00:30;90446.59;;;0.15
71807;BMP280;59655;42.590;23.364;2024-01-15T09:02:56;90455.63;;;0.14
71807;BMP280;59655;42.590;23.364;2024-01-15T09:05:22;90457.53;;;0.14
71807;BMP280;59655;42.590;23.364;2024-01-15T09:07:47;90438.53;;;0.13
71807;BMP280;59655;42.590;23.364;2024-01-15T09:10:13;90438.31;;;0.11
71807;BMP280;59655;42.590;23.364;2024-01-15T09:12:38;90440.22;;;0.11
71807;BMP280;59655;42.590;23.364;2024-01-15T09:15:04;90418.19;;;0.12
71807;BMP280;59655;42.590;23.364;2024-01-15T09:17:31;90398.25;;;0.14
71807;BMP280;59655;42.590;23.364;2024-01-15T09:19:57;90384.19;;;0.23
71807;BMP280;59655;42.590;23.364;2024-01-15T09:22:22;90375.53;;;0.77
71807;BMP280;59655;42.590;23.364;2024-01-15T09:24:48;90359.47;;;1.25
71807;BMP280;59655;42.590;23.364;2024-01-15T09:27:13;90337.13;;;1.56
71807;BMP280;59655;42.590;23.364;2024-01-15T09:29:39;90355.41;;;1.88
71807;BMP280;59655;42.590;23.364;2024-01-15T09:32:05;90359.41;;;2.16
71807;BMP280;59655;42.590;23.364;2024-01-15T09:34:32;90360.53;;;2.34
71807;BMP280;59655;42.590;23.364;2024-01-15T09:36:58;90352.66;;;2.47
71807;BMP280;59655;42.590;23.364;2024-01-15T09:39:25;90370.22;;;2.73
71807;BMP280;59655;42.590;23.364;2024-01-15T09:41:51;90373.13;;;2.83
71807;BMP280;59655;42.590;23.364;2024-01-15T09:44:16;90350.69;;;2.88
71807;BMP280;59655;42.590;23.364;2024-01-15T09:46:42;90341.94;;;3.48
71807;BMP280;59655;42.590;23.364;2024-01-15T09:49:10;90340.16;;;3.22
71807;BMP280;59655;42.590;23.364;2024-01-15T09:51:35;90321.53;;;3.33
71807;BMP280;59655;42.590;23.364;2024-01-15T09:54:02;90301.16;;;3.39
71807;BMP280;59655;42.590;23.364;2024-01-15T09:56:27;90317.31;;;3.51
71807;BMP280;59655;42.590;23.364;2024-01-15T09:58:52;90297.75;;;3.52
71807;BMP280;59655;42.590;23.364;2024-01-15T10:01:20;90284.25;;;3.69
71807;BMP280;59655;42.590;23.364;2024-01-15T10:03:46;90305.84;;;3.91
71807;BMP280;59655;42.590;23.364;2024-01-15T10:06:15;90306.28;;;3.74
71807;BMP280;59655;42.590;23.364;2024-01-15T10:08:43;90296.56;;;3.90
71807;BMP280;59655;42.590;23.364;2024-01-15T10:11:12;90297.66;;;3.94
71807;BMP280;59655;42.590;23.364;2024-01-15T10:13:39;90297.53;;;4.08
71807;BMP280;59655;42.590;23.364;2024-01-15T10:16:04;90292.81;;;4.06
71807;BMP280;59655;42.590;23.364;2024-01-15T10:18:30;90279.06;;;4.21
71807;BMP280;59655;42.590;23.364;2024-01-15T10:20:56;90277.47;;;4.18
71807;BMP280;59655;42.590;23.364;2024-01-15T10:23:23;90278.00;;;4.16
71807;BMP280;59655;42.590;23.364;2024-01-15T10:25:48;90281.34;;;4.32
71807;BMP280;59655;42.590;23.364;2024-01-15T10:28:14;90264.75;;;4.30
71807;BMP280;59655;42.590;23.364;2024-01-15T10:30:39;90266.47;;;4.19
71807;BMP280;59655;42.590;23.364;2024-01-15T10:33:05;90259.81;;;4.18
71807;BMP280;59655;42.590;23.364;2024-01-15T10:35:33;90248.69;;;4.49
71807;BMP280;59655;42.590;23.364;2024-01-15T10:37:59;90258.31;;;4.38
71807;BMP280;59655;42.590;23.364;2024-01-15T10:40:25;90233.28;;;4.37
71807;BMP280;59655;42.590;23.364;2024-01-15T10:42:50;90234.50;;;4.44
71807;BMP280;59655;42.590;23.364;2024-01-15T10:45:15;90234.88;;;4.40
71807;BMP280;59655;42.590;23.364;2024-01-15T10:47:42;90234.72;;;4.54
71807;BMP280;59655;42.590;23.364;2024-01-15T10:50:08;90235.25;;;4.68
71807;BMP280;59655;42.590;23.364;2024-01-15T10:52:39;90254.84;;;4.82
71807;BMP280;59655;42.590;23.364;2024-01-15T10:55:09;90238.78;;;4.93
71807;BMP280;59655;42.590;23.364;2024-01-15T10:57:36;90237.34;;;5.00
71807;BMP280;59655;42.590;23.364;2024-01-15T11:00:02;90236.66;;;4.92
71807;BMP280;59655;42.590;23.364;2024-01-15T11:02:30;90251.03;;;4.91
71807;BMP280;59655;42.590;23.364;2024-01-15T11:04:56;90230.88;;;5.01
71807;BMP280;59655;42.590;23.364;2024-01-15T11:07:23;90231.41;;;4.99
71807;BMP280;59655;42.590;23.364;2024-01-15T11:09:50;90222.13;;;4.91
71807;BMP280;59655;42.590;23.364;2024-01-15T11:12:16;90207.25;;;4.93
71807;BMP280;59655;42.590;23.364;2024-01-15T11:14:46;90199.34;;;4.86
71807;BMP280;59655;42.590;23.364;2024-01-15T11:17:12;90187.41;;;5.00
71807;BMP280;59655;42.590;23.364;2024-01-15T11:22:48;90204.94;;;5.05
71807;BMP280;59655;42.590;23.364;2024-01-15T11:24:57;90205.47;;;5.11
71807;BMP280;59655;42.590;23.364;2024-01-15T11:27:45;90215.09;;;5.16
71807;BMP280;59655;42.590;23.364;2024-01-15T11:30:12;90229.28;;;5.29
71807;BMP280;59655;42.590;23.364;2024-01-15T11:32:39;90232.44;;;5.35
71807;BMP280;59655;42.590;23.364;2024-01-15T11:35:08;90223.00;;;5.24
71807;BMP280;59655;42.590;23.364;2024-01-15T11:40:35;90202.28;;;5.36
71807;BMP280;59655;42.590;23.364;2024-01-15T11:43:03;90197.38;;;5.40
71807;BMP280;59655;42.590;23.364;2024-01-15T11:45:30;90185.06;;;5.50
71807;BMP280;59655;42.590;23.364;2024-01-15T11:48:15;90203.09;;;5.61
71807;BMP280;59655;42.590;23.364;2024-01-15T11:50:46;90210.31;;;5.61
71807;BMP280;59655;42.590;23.364;2024-01-15T11:53:32;90217.63;;;5.70
71807;BMP280;59655;42.590;23.364;2024-01-15T11:56:02;90219.19;;;5.65
71807;BMP280;59655;42.590;23.364;2024-01-15T11:58:27;90204.31;;;5.68
71807;BMP280;59655;42.590;23.364;2024-01-15T12:00:53;90203.28;;;5.63
71807;BMP280;59655;42.590;23.364;2024-01-15T12:03:23;90202.75;;;5.57
71807;BMP280;59655;42.590;23.364;2024-01-15T12:05:49;90201.94;;;5.39
71807;BMP280;59655;42.590;23.364;2024-01-15T12:08:14;90193.53;;;5.41
71807;BMP280;59655;42.590;23.364;2024-01-15T12:10:40;90188.25;;;5.33
71807;BMP280;59655;42.590;23.364;2024-01-15T12:15:34;90184.41;;;5.34
71807;BMP280;59655;42.590;23.364;2024-01-15T12:18:01;90175.63;;;5.39
71807;BMP280;59655;42.590;23.364;2024-01-15T12:20:28;90173.69;;;5.40
71807;BMP280;59655;42.590;23.364;2024-01-15T12:22:54;90178.78;;;5.38
71807;BMP280;59655;42.590;23.364;2024-01-15T12:25:24;90188.63;;;5.37
71807;BMP280;59655;42.590;23.364;2024-01-15T12:27:50;90190.63;;;5.70
71807;BMP280;59655;42.590;23.364;2024-01-15T12:30:16;90198.75;;;5.56
71807;BMP280;59655;42.590;23.364;2024-01-15T12:32:41;90204.38;;;5.45
71807;BMP280;59655;42.590;23.364;2024-01-15T12:35:08;90203.16;;;5.23
71807;BMP280;59655;42.590;23.364;2024-01-15T12:37:37;90192.88;;;5.10
71807;BMP280;59655;42.590;23.364;2024-01-15T12:40:04;90189.69;;;5.03
71807;BMP280;59655;42.590;23.364;2024-01-15T12:42:32;90193.22;;;4.98
71807;BMP280;59655;42.590;23.364;2024-01-15T12:44:58;90187.47;;;4.85
71807;BMP280;59655;42.590;23.364;2024-01-15T12:47:23;90187.97;;;4.68
71807;BMP280;59655;42.590;23.364;2024-01-15T12:49:51;90181.47;;;4.69
71807;BMP280;59655;42.590;23.364;2024-01-15T12:52:19;90187.97;;;4.68
71807;BMP280;59655;42.590;23.364;2024-01-15T12:54:44;90189.69;;;4.65
71807;BMP280;59655;42.590;23.364;2024-01-15T12:57:09;90189.88;;;4.67
71807;BMP280;59655;42.590;23.364;2024-01-15T12:59:34;90182.88;;;4.47
71807;BMP280;59655;42.590;23.364;2024-01-15T13:02:00;90170.97;;;4.61
71807;BMP280;59655;42.590;23.364;2024-01-15T13:04:26;90176.22;;;4.61
71807;BMP280;59655;42.590;23.364;2024-01-15T13:06:52;90172.22;;;4.60
71807;BMP280;59655;42.590;23.364;2024-01-15T13:09:18;90172.41;;;4.70
71807;BMP280;59655;42.590;23.364;2024-01-15T13:11:44;90167.47;;;4.66
71807;BMP280;59655;42.590;23.364;2024-01-15T13:14:10;90166.06;;;4.65
71807;BMP280;59655;42.590;23.364;2024-01-15T13:16:35;90155.06;;;4.59
71807;BMP280;59655;42.590;23.364;2024-01-15T13:19:00;90155.41;;;4.55
71807;BMP280;59655;42.590;23.364;2024-01-15T13:21:26;90145.63;;;4.56
71807;BMP280;59655;42.590;23.364;2024-01-15T13:23:51;90155.94;;;4.69
71807;BMP280;59655;42.590;23.364;2024-01-15T13:26:16;90150.69;;;4.69
71807;BMP280;59655;42.590;23.364;2024-01-15T13:28:44;90150.31;;;4.80
71807;BMP280;59655;42.590;23.364;2024-01-15T13:31:09;90150.88;;;4.71
71807;BMP280;59655;42.590;23.364;2024-01-15T13:33:35;90156.09;;;4.63
71807;BMP280;59655;42.590;23.364;2024-01-15T13:36:00;90149.63;;;4.57
71807;BMP280;59655;42.590;23.364;2024-01-15T13:38:25;90151.19;;;4.45
71807;BMP280;59655;42.590;23.364;2024-01-15T13:40:52;90148.38;;;4.42
71807;BMP280;59655;42.590;23.364;2024-01-15T13:43:21;90148.06;;;4.38
71807;BMP280;59655;42.590;23.364;2024-01-15T13:45:46;90147.16;;;4.36
71807;BMP280;59655;42.590;23.364;2024-01-15T13:48:12;90151.19;;;4.37
71807;BMP280;59655;42.590;23.364;2024-01-15T13:50:37;90138.59;;;4.35
71807;BMP280;59655;42.590;23.364;2024-01-15T13:53:03;90138.06;;;4.37
71807;BMP280;59655;42.590;23.364;2024-01-15T13:55:29;90140.50;;;4.27
71807;BMP280;59655;42.590;23.364;2024-01-15T13:57:54;90135.25;;;4.19
71807;BMP280;59655;42.590;23.364;2024-01-15T14:00:20;90143.66;;;4.18
71807;BMP280;59655;42.590;23.364;2024-01-15T14:02:46;90138.38;;;4.10